Time;durP1;ratioP1;P1;durP2;ratioP2;P2;SDS_P1;SDS_P2;PMS_P1;PMS_P2;Temp;Humidity;BMP_temperature;BMP_pressure;BME280_temperature;BME280_humidity;BME280_pressure;Samples;Min_cycle;Max_cycle;Signal;HPM_P1;HPM_P2
2023/05/02 00:00:08;;;;;;;2.33;1.70;;;12.20;99.90;;;;;;5095068;28;20464;-70
2023/05/02 00:02:42;;;;;;;2.20;2.00;;;12.20;99.90;;;;;;5136608;28;20038;-69
2023/05/02 00:05:18;;;;;;;2.13;2.03;;;12.10;99.90;;;;;;5149875;28;20057;-69
2023/05/02 00:07:52;;;;;;;2.22;1.95;;;12.20;99.90;;;;;;5118764;28;20051;-69
2023/05/02 00:10:24;;;;;;;2.38;2.17;;;12.20;99.90;;;;;;5120375;28;20046;-68
2023/05/02 00:12:55;;;;;;;2.38;2.17;;;12.20;99.90;;;;;;5153752;28;20046;-66
2023/05/02 00:15:27;;;;;;;2.20;2.00;;;12.20;99.90;;;;;;5133480;28;20046;-65
2023/05/02 00:18:01;;;;;;;2.25;2.10;;;12.10;99.90;;;;;;5153153;28;20049;-68
2023/05/02 00:20:34;;;;;;;2.40;2.20;;;12.10;99.90;;;;;;5120173;28;20053;-69
2023/05/02 00:23:10;;;;;;;2.42;1.90;;;12.10;99.90;;;;;;5152133;28;20041;-65
2023/05/02 00:25:46;;;;;;;2.75;1.90;;;12.10;99.90;;;;;;5132487;28;20046;-67
2023/05/02 00:28:20;;;;;;;2.30;2.10;;;12.10;99.90;;;;;;5123382;28;20057;-66
2023/05/02 00:30:52;;;;;;;1.95;1.80;;;12.10;99.90;;;;;;5134359;28;20042;-68
2023/05/02 00:33:26;;;;;;;1.85;1.75;;;12.00;99.90;;;;;;5135254;28;20050;-66
2023/05/02 00:36:01;;;;;;;2.40;2.20;;;11.90;99.90;;;;;;5151481;28;20502;-67
2023/05/02 00:38:34;;;;;;;2.22;2.13;;;11.80;99.90;;;;;;5135118;28;20038;-68
2023/05/02 00:41:09;;;;;;;1.77;1.58;;;11.80;99.90;;;;;;5118531;28;20182;-70
2023/05/02 00:43:44;;;;;;;2.15;1.95;;;11.70;99.90;;;;;;5136970;28;20049;-68
2023/05/02 00:46:18;;;;;;;2.08;1.75;;;11.70;99.90;;;;;;5118827;28;20052;-68
2023/05/02 00:48:52;;;;;;;4.25;2.00;;;11.70;99.90;;;;;;5120087;28;20042;-66
2023/05/02 00:51:26;;;;;;;2.05;1.85;;;11.70;99.90;;;;;;5153017;28;20052;-69
2023/05/02 00:54:02;;;;;;;3.30;2.35;;;11.80;99.90;;;;;;5116574;28;20046;-69
2023/05/02 00:56:34;;;;;;;2.50;2.30;;;11.80;99.90;;;;;;5114931;28;20496;-68
2023/05/02 00:59:17;;;;;;;3.05;2.17;;;11.90;99.90;;;;;;5132235;28;20060;-68
2023/05/02 01:02:11;;;;;;;2.13;1.92;;;11.90;99.90;;;;;;5197051;23;20034;-69
2023/05/02 01:05:10;;;;;;;2.30;2.10;;;12.00;99.90;;;;;;5107919;28;20062;-70
2023/05/02 01:08:44;;;;;;;2.40;2.20;;;12.20;99.90;;;;;;5099409;28;20039;-65
2023/05/02 01:11:41;;;;;;;2.83;2.10;;;12.40;99.90;;;;;;5102604;28;20610;-67
2023/05/02 01:14:19;;;;;;;2.40;2.20;;;12.50;99.90;;;;;;5102446;28;20030;-69
2023/05/02 01:16:55;;;;;;;2.72;2.13;;;12.60;99.90;;;;;;5141068;28;20265;-67
2023/05/02 01:19:39;;;;;;;3.13;2.83;;;12.70;99.90;;;;;;5107468;28;20042;-70
2023/05/02 01:22:13;;;;;;;5.30;2.35;;;12.80;99.90;;;;;;5132560;28;20033;-68
2023/05/02 01:25:18;;;;;;;4.20;3.28;;;12.90;99.90;;;;;;5121717;28;20042;-67
2023/05/02 01:27:53;;;;;;;3.22;2.90;;;13.20;99.90;;;;;;5097547;28;20050;-69
2023/05/02 01:30:31;;;;;;;3.40;2.50;;;13.30;99.90;;;;;;5100162;28;20532;-68
2023/05/02 01:33:12;;;;;;;4.15;2.53;;;13.40;99.90;;;;;;5118377;28;20046;-68
2023/05/02 01:35:51;;;;;;;4.07;3.67;;;13.40;99.90;;;;;;5133779;28;20076;-67
2023/05/02 01:38:33;;;;;;;5.75;4.22;;;13.40;99.90;;;;;;5133450;28;20238;-69
2023/05/02 01:41:06;;;;;;;4.70;3.70;;;13.50;99.90;;;;;;5138728;28;20054;-70
2023/05/02 01:43:44;;;;;;;6.13;4.00;;;13.70;99.90;;;;;;5112395;28;20041;-67
2023/05/02 01:46:17;;;;;;;6.05;4.20;;;13.80;99.90;;;;;;5100282;28;20588;-68
2023/05/02 01:48:55;;;;;;;6.88;4.20;;;13.80;99.90;;;;;;5111765;28;20044;-68
2023/05/02 01:51:32;;;;;;;4.03;3.60;;;13.80;99.90;;;;;;5111260;28;20056;-69
2023/05/02 01:54:10;;;;;;;4.07;3.70;;;13.80;99.90;;;;;;5099538;28;20376;-72
2023/05/02 01:56:48;;;;;;;4.55;3.88;;;13.80;99.90;;;;;;5131070;28;20058;-66
2023/05/02 01:59:26;;;;;;;4.20;3.45;;;13.70;99.90;;;;;;5099871;28;20080;-70
2023/05/02 02:02:05;;;;;;;4.53;3.80;;;13.70;99.90;;;;;;5121350;28;20080;-69
2023/05/02 02:04:39;;;;;;;4.15;3.47;;;13.70;99.90;;;;;;5122067;28;20055;-68
2023/05/02 02:07:16;;;;;;;3.88;3.58;;;13.70;99.90;;;;;;5100360;28;20052;-69
2023/05/02 02:09:47;;;;;;;6.63;3.72;;;13.70;99.90;;;;;;5131215;28;20039;-67
2023/05/02 02:12:26;;;;;;;4.53;3.70;;;13.70;99.90;;;;;;5130268;28;20031;-67
2023/05/02 02:15:29;;;;;;;4.65;3.90;;;13.70;99.90;;;;;;5133553;28;20547;-67
2023/05/02 02:18:24;;;;;;;4.90;3.97;;;13.70;99.90;;;;;;5101196;28;20045;-69
2023/05/02 02:20:59;;;;;;;4.07;3.67;;;13.70;99.90;;;;;;5101462;28;20612;-66
2023/05/02 02:23:35;;;;;;;4.30;3.85;;;13.70;99.90;;;;;;5116673;28;20050;-66
2023/05/02 02:26:13;;;;;;;3.88;3.50;;;13.70;99.90;;;;;;5132821;28;20030;-70
2023/05/02 02:28:45;;;;;;;3.42;2.80;;;13.60;99.90;;;;;;5114176;29;20574;-67
2023/05/02 02:31:21;;;;;;;4.20;3.80;;;13.60;99.90;;;;;;5084777;29;20050;-69
2023/05/02 02:33:55;;;;;;;5.15;3.83;;;13.50;99.90;;;;;;5135088;28;20035;-67
2023/05/02 02:36:46;;;;;;;4.05;3.65;;;13.50;99.90;;;;;;5117006;28;20057;-68
2023/05/02 02:39:47;;;;;;;4.78;3.55;;;13.50;99.90;;;;;;5117332;28;20347;-69
2023/05/02 02:42:59;;;;;;;4.60;3.40;;;13.50;99.90;;;;;;5117887;28;20040;-71
2023/05/02 02:45:44;;;;;;;5.05;3.55;;;13.40;99.90;;;;;;5133604;28;20360;-67
2023/05/02 02:48:45;;;;;;;3.53;2.90;;;13.30;99.90;;;;;;5117422;28;20204;-66
2023/05/02 02:51:28;;;;;;;4.55;3.42;;;13.30;99.90;;;;;;5117300;29;20051;-69
2023/05/02 02:54:13;;;;;;;3.27;2.97;;;13.20;99.90;;;;;;5093956;28;20073;-70
2023/05/02 02:56:50;;;;;;;;;;;13.20;99.90;;;;;;5114841;28;20409;-70
2023/05/02 02:59:34;;;;;;;3.67;3.28;;;13.30;99.90;;;;;;5097217;28;20418;-68
2023/05/02 03:02:12;;;;;;;3.15;2.75;;;13.30;99.90;;;;;;5112860;28;20051;-69
2023/05/02 03:04:50;;;;;;;2.85;2.53;;;13.30;99.90;;;;;;5097092;28;20469;-68
2023/05/02 03:07:26;;;;;;;3.38;3.08;;;13.30;99.90;;;;;;5117283;28;20051;-69
2023/05/02 03:10:07;;;;;;;4.28;3.00;;;13.30;99.90;;;;;;5121518;28;20053;-67
2023/05/02 03:12:40;;;;;;;3.45;2.40;;;13.40;99.90;;;;;;5125697;28;20049;-68
2023/05/02 03:15:20;;;;;;;3.60;3.25;;;13.50;99.90;;;;;;5150693;28;20361;-69
2023/05/02 03:17:58;;;;;;;3.28;2.97;;;13.50;99.90;;;;;;5137888;28;20514;-70
2023/05/02 03:20:35;;;;;;;4.00;3.60;;;13.50;99.90;;;;;;5137601;28;20042;-69
2023/05/02 03:23:10;;;;;;;4.38;3.30;;;13.50;99.90;;;;;;5138915;28;20392;-67
2023/05/02 03:25:43;;;;;;;3.50;3.05;;;13.50;99.90;;;;;;5113841;28;20046;-70
2023/05/02 03:28:15;;;;;;;3.78;3.33;;;13.50;99.90;;;;;;5133276;28;20042;-66
2023/05/02 03:30:46;;;;;;;3.47;3.10;;;13.50;99.90;;;;;;5152635;28;20033;-69
2023/05/02 03:33:19;;;;;;;4.70;3.30;;;13.40;99.90;;;;;;5156828;28;20486;-67
2023/05/02 03:35:53;;;;;;;4.68;3.60;;;13.40;99.90;;;;;;5136293;28;20046;-70
2023/05/02 03:38:27;;;;;;;3.25;2.95;;;13.30;99.90;;;;;;5120552;28;20052;-70
2023/05/02 03:40:59;;;;;;;3.13;2.83;;;13.20;99.90;;;;;;5140601;28;20056;-70
2023/05/02 03:43:33;;;;;;;3.95;3.55;;;13.20;99.90;;;;;;5155939;28;20049;-69
2023/05/02 03:46:08;;;;;;;3.42;3.13;;;13.10;99.90;;;;;;5140368;28;20041;-69
2023/05/02 03:48:44;;;;;;;4.30;3.20;;;13.10;99.90;;;;;;5141163;28;20037;-71
2023/05/02 03:51:16;;;;;;;3.58;2.95;;;13.10;99.90;;;;;;5146001;28;20046;-69
2023/05/02 03:53:47;;;;;;;3.95;3.13;;;13.00;99.90;;;;;;5125072;28;20056;-70
2023/05/02 03:56:24;;;;;;;3.65;3.20;;;13.00;99.90;;;;;;5121467;28;20046;-70
2023/05/02 03:58:59;;;;;;;3.33;3.03;;;13.00;99.90;;;;;;5130865;28;20465;-70
2023/05/02 04:01:31;;;;;;;3.95;3.35;;;13.00;99.90;;;;;;5149073;28;20057;-66
2023/05/02 04:04:02;;;;;;;4.03;2.97;;;13.00;99.90;;;;;;5152871;28;20429;-69
2023/05/02 04:06:39;;;;;;;3.97;3.58;;;12.90;99.90;;;;;;5127879;28;20057;-69
2023/05/02 04:09:10;;;;;;;3.55;3.22;;;13.00;99.90;;;;;;5137050;28;20046;-68
2023/05/02 04:11:42;;;;;;;3.95;3.55;;;13.00;99.90;;;;;;5153005;28;20031;-70
2023/05/02 04:14:15;;;;;;;4.07;3.30;;;13.10;99.90;;;;;;5106455;28;20042;-69
2023/05/02 04:16:50;;;;;;;4.83;3.97;;;13.10;99.90;;;;;;5134205;28;20251;-68
2023/05/02 04:19:27;;;;;;;4.85;2.92;;;13.10;99.90;;;;;;5137983;28;20033;-67
2023/05/02 04:22:06;;;;;;;5.50;3.20;;;13.30;99.90;;;;;;5135667;28;20046;-69
2023/05/02 04:24:45;;;;;;;4.63;3.33;;;13.30;99.90;;;;;;5151945;28;20676;-68
2023/05/02 04:27:18;;;;;;;4.15;3.63;;;13.40;99.90;;;;;;5157469;28;20384;-70
2023/05/02 04:29:55;;;;;;;4.78;3.60;;;13.50;99.90;;;;;;5124105;28;20054;-69
2023/05/02 04:32:30;;;;;;;3.63;3.25;;;13.50;99.90;;;;;;5134527;28;20042;-70
2023/05/02 04:35:02;;;;;;;3.75;2.90;;;13.50;99.90;;;;;;5138593;28;20419;-68
2023/05/02 04:37:36;;;;;;;3.13;2.83;;;13.50;99.90;;;;;;5122668;28;20470;-67
2023/05/02 04:40:11;;;;;;;3.33;3.03;;;13.60;99.90;;;;;;5140195;28;20045;-66
2023/05/02 04:42:42;;;;;;;3.42;2.92;;;13.60;99.90;;;;;;5156946;28;20242;-70
2023/05/02 04:45:18;;;;;;;3.75;2.90;;;13.70;99.90;;;;;;5155147;28;20038;-68
2023/05/02 04:47:59;;;;;;;3.83;3.30;;;13.80;99.90;;;;;;5156577;28;20030;-67
2023/05/02 04:50:31;;;;;;;3.58;3.22;;;13.80;99.90;;;;;;5164645;28;20126;-65
2023/05/02 04:53:05;;;;;;;3.15;2.83;;;13.80;99.90;;;;;;5104452;28;20382;-70
2023/05/02 04:55:43;;;;;;;3.47;3.17;;;13.90;99.90;;;;;;5118269;28;20369;-69
2023/05/02 04:58:20;;;;;;;3.60;3.05;;;14.00;99.90;;;;;;5145017;28;20061;-67
2023/05/02 05:00:57;;;;;;;3.78;2.70;;;14.10;99.90;;;;;;5140464;28;20034;-67
2023/05/02 05:03:32;;;;;;;4.18;3.20;;;14.20;99.90;;;;;;5112174;28;20357;-69
2023/05/02 05:06:03;;;;;;;3.80;3.22;;;14.30;99.90;;;;;;5123498;28;20058;-71
2023/05/02 05:08:40;;;;;;;3.88;2.97;;;14.40;99.90;;;;;;5150896;28;20032;-67
2023/05/02 05:11:14;;;;;;;3.50;3.20;;;14.50;99.90;;;;;;5134703;28;20056;-68
2023/05/02 05:13:54;;;;;;;;;;;14.50;99.90;;;;;;5135415;28;20041;-68
2023/05/02 05:16:29;;;;;;;4.05;3.40;;;14.70;99.90;;;;;;5149589;28;19921;-67
2023/05/02 05:19:04;;;;;;;4.10;2.85;;;14.70;99.90;;;;;;5147917;28;20034;-70
2023/05/02 05:21:35;;;;;;;3.20;2.90;;;14.80;99.90;;;;;;5109085;28;20057;-70
2023/05/02 05:24:13;;;;;;;5.25;3.45;;;15.10;99.90;;;;;;5145425;28;20048;-71
2023/05/02 05:26:45;;;;;;;3.85;3.33;;;15.10;99.90;;;;;;5129386;28;20052;-66
2023/05/02 05:29:17;;;;;;;4.03;3.63;;;15.30;99.90;;;;;;5115873;28;20366;-72
2023/05/02 05:31:51;;;;;;;4.68;3.33;;;15.50;99.90;;;;;;5130338;28;20042;-70
2023/05/02 05:34:25;;;;;;;5.97;3.60;;;15.30;99.90;;;;;;5146127;28;20057;-65
2023/05/02 05:37:01;;;;;;;4.25;3.67;;;15.40;99.90;;;;;;5147940;28;20049;-69
2023/05/02 05:39:36;;;;;;;3.30;3.00;;;15.40;99.90;;;;;;5148932;28;20527;-66
2023/05/02 05:42:11;;;;;;;4.40;3.05;;;15.70;99.90;;;;;;5123900;28;20057;-66
2023/05/02 05:44:42;;;;;;;3.45;3.15;;;15.90;99.90;;;;;;5143150;28;20369;-70
2023/05/02 05:47:22;;;;;;;3.42;2.92;;;16.00;99.90;;;;;;5126048;28;20053;-69
2023/05/02 05:49:55;;;;;;;3.63;3.33;;;16.20;99.90;;;;;;5147922;28;20047;-67
2023/05/02 05:52:29;;;;;;;3.17;2.88;;;16.50;99.90;;;;;;5154688;28;20030;-69
2023/05/02 05:55:04;;;;;;;3.28;2.97;;;16.80;99.90;;;;;;5142279;28;20030;-68
2023/05/02 05:57:35;;;;;;;;;;;17.10;99.90;;;;;;5136225;28;20058;-69
2023/05/02 06:00:07;;;;;;;5.35;2.78;;;17.20;99.90;;;;;;5141430;28;19916;-69
2023/05/02 06:02:44;;;;;;;3.03;2.72;;;17.00;99.90;;;;;;5118195;28;20050;-67
2023/05/02 06:05:17;;;;;;;3.42;3.03;;;17.00;99.90;;;;;;5128142;28;20112;-69
2023/05/02 06:07:48;;;;;;;2.90;2.63;;;17.10;99.90;;;;;;5122379;28;20038;-69
2023/05/02 06:10:26;;;;;;;3.55;2.97;;;17.40;99.90;;;;;;5146494;28;20046;-68
2023/05/02 06:12:59;;;;;;;4.18;2.88;;;17.80;99.90;;;;;;5122276;28;20038;-68
2023/05/02 06:15:36;;;;;;;4.70;3.60;;;17.80;99.90;;;;;;5113094;28;20042;-71
2023/05/02 06:18:11;;;;;;;3.45;3.15;;;17.20;99.90;;;;;;5153091;28;20318;-66
2023/05/02 06:20:45;;;;;;;4.25;2.83;;;16.90;99.90;;;;;;5103219;28;20350;-68
2023/05/02 06:23:21;;;;;;;3.45;3.03;;;16.40;99.90;;;;;;5110146;28;20254;-67
2023/05/02 06:25:53;;;;;;;3.75;3.10;;;16.30;99.90;;;;;;5117977;28;20042;-67
2023/05/02 06:28:27;;;;;;;3.90;3.28;;;16.30;99.90;;;;;;5158233;28;20044;-71
2023/05/02 06:31:04;;;;;;;4.53;3.15;;;16.10;99.90;;;;;;5135110;28;20315;-68
2023/05/02 06:33:38;;;;;;;3.92;3.40;;;16.30;99.90;;;;;;5136612;28;20316;-69
2023/05/02 06:36:09;;;;;;;4.43;3.72;;;16.40;99.90;;;;;;5121453;28;20053;-71
2023/05/02 06:38:41;;;;;;;4.32;3.42;;;16.20;99.90;;;;;;5153503;28;20129;-68
2023/05/02 06:41:19;;;;;;;3.92;3.53;;;16.10;99.90;;;;;;5140456;28;20037;-67
2023/05/02 06:43:50;;;;;;;5.57;3.90;;;16.50;99.90;;;;;;5133719;28;20407;-67
2023/05/02 06:46:22;;;;;;;4.85;3.33;;;16.60;99.90;;;;;;5118421;28;20035;-66
2023/05/02 06:48:56;;;;;;;4.07;3.17;;;16.40;99.90;;;;;;5156082;28;20034;-67
2023/05/02 06:51:27;;;;;;;6.50;4.68;;;16.40;99.90;;;;;;5137631;28;20449;-68
2023/05/02 06:53:59;;;;;;;3.63;3.08;;;16.30;99.90;;;;;;5155441;28;20042;-69
2023/05/02 06:56:30;;;;;;;3.88;3.38;;;16.60;99.90;;;;;;5151911;28;20026;-72
2023/05/02 06:59:02;;;;;;;4.32;3.22;;;16.40;99.90;;;;;;5153274;28;20280;-69
2023/05/02 07:01:33;;;;;;;6.03;4.47;;;16.30;99.90;;;;;;5134089;28;20038;-67
2023/05/02 07:04:07;;;;;;;4.03;2.80;;;16.30;99.90;;;;;;5151406;28;20220;-69
2023/05/02 07:06:41;;;;;;;5.20;4.00;;;16.40;99.90;;;;;;5108605;28;20044;-68
2023/05/02 07:09:13;;;;;;;4.47;2.78;;;16.50;99.90;;;;;;5122925;28;20043;-69
2023/05/02 07:11:47;;;;;;;3.60;3.30;;;16.70;99.90;;;;;;5147748;28;20222;-69
2023/05/02 07:14:18;;;;;;;4.60;3.88;;;16.80;99.90;;;;;;5134305;28;20049;-66
2023/05/02 07:16:52;;;;;;;4.10;2.97;;;16.80;99.90;;;;;;5130672;28;20039;-70
2023/05/02 07:19:24;;;;;;;5.15;3.55;;;16.70;99.90;;;;;;5131090;28;20157;-68
2023/05/02 07:21:55;;;;;;;4.18;3.10;;;16.80;99.90;;;;;;5153503;28;20350;-67
2023/05/02 07:24:29;;;;;;;4.15;3.35;;;16.80;99.90;;;;;;5151782;28;20045;-68
2023/05/02 07:27:06;;;;;;;4.32;3.63;;;16.50;99.90;;;;;;5125554;28;20238;-71
2023/05/02 07:29:41;;;;;;;4.78;3.60;;;16.70;99.90;;;;;;5151528;28;20052;-69
2023/05/02 07:32:15;;;;;;;5.43;3.67;;;16.50;99.90;;;;;;5113311;28;20053;-65
2023/05/02 07:34:48;;;;;;;4.60;3.97;;;16.60;99.90;;;;;;5097975;28;20061;-71
2023/05/02 07:37:23;;;;;;;3.75;3.13;;;16.40;99.90;;;;;;5135288;28;20042;-70
2023/05/02 07:39:57;;;;;;;3.83;3.03;;;16.30;99.90;;;;;;5130778;28;20042;-67
2023/05/02 07:42:32;;;;;;;5.05;3.72;;;16.40;99.90;;;;;;5147746;28;20056;-68
2023/05/02 07:45:07;;;;;;;4.20;3.70;;;16.20;99.90;;;;;;5138927;28;20116;-70
2023/05/02 07:47:39;;;;;;;4.32;3.60;;;16.10;99.90;;;;;;5150438;28;20030;-70
2023/05/02 07:50:13;;;;;;;4.25;2.70;;;16.10;99.90;;;;;;5134879;28;20339;-70
2023/05/02 07:52:45;;;;;;;;;;;16.60;99.90;;;;;;5137000;28;20345;-68
2023/05/02 07:55:29;;;;;;;3.40;2.80;;;16.80;99.90;;;;;;5134142;28;20004;-68
2023/05/02 07:58:03;;;;;;;3.28;2.75;;;17.10;99.90;;;;;;5131612;28;20261;-69
2023/05/02 08:00:35;;;;;;;3.53;3.10;;;17.40;99.90;;;;;;5132672;28;20044;-68
2023/05/02 08:03:13;;;;;;;2.70;2.30;;;17.30;99.90;;;;;;5130456;28;20042;-67
2023/05/02 08:05:46;;;;;;;3.35;2.65;;;17.50;99.90;;;;;;5143603;28;20041;-67
2023/05/02 08:08:19;;;;;;;3.28;2.67;;;17.60;99.90;;;;;;5135032;28;20069;-69
2023/05/02 08:10:53;;;;;;;3.05;2.80;;;17.70;99.90;;;;;;5152888;28;20559;-66
2023/05/02 08:13:26;;;;;;;2.63;2.30;;;17.20;99.90;;;;;;5124480;28;20030;-65
2023/05/02 08:16:01;;;;;;;2.40;2.15;;;16.90;99.90;;;;;;5132036;28;20200;-69
2023/05/02 08:18:32;;;;;;;3.05;2.25;;;17.00;99.90;;;;;;5152618;28;20030;-69
2023/05/02 08:21:04;;;;;;;2.75;2.20;;;17.00;99.90;;;;;;5132571;28;20263;-69
2023/05/02 08:23:38;;;;;;;1.85;1.75;;;17.40;99.90;;;;;;5150634;28;20032;-65
2023/05/02 08:26:10;;;;;;;;;;;17.60;99.90;;;;;;5154026;28;20278;-68
2023/05/02 08:28:44;;;;;;;2.35;2.15;;;17.20;99.90;;;;;;5139242;28;20050;-68
2023/05/02 08:31:18;;;;;;;1.63;1.52;;;17.20;99.90;;;;;;5132519;28;20050;-70
2023/05/02 08:33:55;;;;;;;2.17;1.90;;;16.90;99.90;;;;;;5118141;28;20313;-69
2023/05/02 08:36:28;;;;;;;2.42;1.88;;;16.90;99.90;;;;;;5117505;28;20235;-70
2023/05/02 08:39:03;;;;;;;2.28;1.90;;;17.20;99.90;;;;;;5119949;28;20045;-66
2023/05/02 08:41:37;;;;;;;1.90;1.80;;;17.10;99.90;;;;;;5132369;28;20038;-71
2023/05/02 08:44:09;;;;;;;;;;;17.40;99.90;;;;;;5149357;28;20093;-69
2023/05/02 08:46:42;;;;;;;1.95;1.77;;;17.70;99.90;;;;;;5133354;28;19916;-71
2023/05/02 08:49:18;;;;;;;1.90;1.70;;;17.60;99.90;;;;;;5119758;28;20053;-71
2023/05/02 08:51:53;;;;;;;2.20;2.00;;;17.80;99.90;;;;;;5130363;28;20045;-68
2023/05/02 08:54:27;;;;;;;2.17;1.98;;;17.60;99.90;;;;;;5151812;28;20056;-67
2023/05/02 08:57:03;;;;;;;2.33;1.90;;;17.50;99.90;;;;;;5121252;28;20038;-70
2023/05/02 08:59:37;;;;;;;2.13;1.83;;;17.30;99.90;;;;;;5114828;28;20048;-68
2023/05/02 09:02:40;;;;;;;;;;;17.30;99.90;;;;;;5128389;28;20065;-70
2023/05/02 09:05:22;;;;;;;2.40;2.05;;;17.30;99.90;;;;;;5123095;28;19917;-68
2023/05/02 09:07:54;;;;;;;2.85;2.65;;;16.80;99.90;;;;;;5123772;28;20073;-68
2023/05/02 09:10:28;;;;;;;1.83;1.73;;;16.50;99.90;;;;;;5165176;28;20045;-70
2023/05/02 09:13:35;;;;;;;2.55;2.20;;;16.10;99.90;;;;;;5122107;28;20054;-70
2023/05/02 09:16:18;;;;;;;2.90;2.17;;;16.20;99.90;;;;;;5147835;28;20046;-72
2023/05/02 09:18:51;;;;;;;2.70;2.35;;;16.20;99.90;;;;;;5139550;28;20030;-69
2023/05/02 09:21:25;;;;;;;2.08;1.88;;;16.10;99.90;;;;;;5154002;28;20048;-71
2023/05/02 09:24:00;;;;;;;2.58;2.15;;;16.20;99.90;;;;;;5154054;28;20050;-67
2023/05/02 09:26:34;;;;;;;2.55;1.90;;;16.30;99.90;;;;;;5139382;28;20040;-65
2023/05/02 09:29:06;;;;;;;;;;;16.70;99.90;;;;;;5117912;28;20433;-70
2023/05/02 09:31:38;;;;;;;2.00;1.88;;;17.10;99.90;;;;;;5127814;28;19910;-68
2023/05/02 09:34:13;;;;;;;2.85;2.65;;;17.20;99.90;;;;;;5118723;28;20044;-70
2023/05/02 09:36:46;;;;;;;;;;;17.10;99.90;;;;;;5150929;28;20377;-71
2023/05/02 09:39:31;;;;;;;2.30;2.10;;;17.20;99.90;;;;;;5126788;28;19941;-69
2023/05/02 09:42:06;;;;;;;2.08;1.88;;;17.40;99.90;;;;;;5155292;28;20237;-70
2023/05/02 09:44:41;;;;;;;2.05;1.90;;;17.10;99.90;;;;;;5132161;28;20060;-71
2023/05/02 09:47:26;;;;;;;1.95;1.70;;;17.00;99.90;;;;;;5144566;28;20030;-68
2023/05/02 09:50:00;;;;;;;2.55;2.35;;;16.50;99.90;;;;;;5150468;28;20046;-71
2023/05/02 09:52:36;;;;;;;2.33;2.13;;;16.70;99.90;;;;;;5131835;28;20041;-71
2023/05/02 09:55:22;;;;;;;2.50;2.28;;;17.20;99.90;;;;;;5118440;28;20125;-67
2023/05/02 09:57:57;;;;;;;3.10;2.78;;;17.60;99.90;;;;;;5113766;28;20056;-70
2023/05/02 10:00:42;;;;;;;3.03;2.30;;;17.90;99.90;;;;;;5131059;28;20441;-67
2023/05/02 10:03:21;;;;;;;2.83;2.63;;;17.80;99.90;;;;;;5149832;28;20264;-69
2023/05/02 10:05:54;;;;;;;3.13;2.30;;;17.70;99.90;;;;;;5110254;28;20319;-69
2023/05/02 10:08:33;;;;;;;4.13;2.45;;;17.50;99.90;;;;;;5109864;28;20394;-67
2023/05/02 10:11:07;;;;;;;2.33;2.13;;;17.50;99.90;;;;;;5151130;28;20160;-69
2023/05/02 10:13:44;;;;;;;3.05;2.70;;;17.40;99.90;;;;;;5134567;28;20034;-68
2023/05/02 10:16:27;;;;;;;4.50;3.13;;;17.20;99.90;;;;;;5130700;28;20311;-67
2023/05/02 10:19:11;;;;;;;4.68;3.42;;;17.10;99.90;;;;;;5147635;28;20026;-68
2023/05/02 10:21:45;;;;;;;4.32;3.15;;;16.60;99.90;;;;;;5149045;28;20581;-70
2023/05/02 10:24:17;;;;;;;3.95;2.75;;;16.70;99.90;;;;;;5133248;28;20047;-70
2023/05/02 10:26:50;;;;;;;4.45;3.20;;;17.20;99.90;;;;;;5116381;28;20046;-72
2023/05/02 10:29:22;;;;;;;3.75;3.22;;;17.20;99.90;;;;;;5147407;28;20049;-71
2023/05/02 10:31:56;;;;;;;3.92;3.17;;;17.00;99.90;;;;;;5112661;28;20051;-70
2023/05/02 10:34:31;;;;;;;3.63;3.13;;;16.60;99.90;;;;;;5149444;28;20253;-67
2023/05/02 10:37:07;;;;;;;3.15;2.85;;;16.40;99.90;;;;;;5120144;28;20041;-70
2023/05/02 10:39:41;;;;;;;3.83;3.13;;;16.40;99.90;;;;;;5116084;28;20053;-67
2023/05/02 10:42:17;;;;;;;4.03;3.60;;;16.30;99.90;;;;;;5115585;28;20060;-69
2023/05/02 10:44:49;;;;;;;5.90;3.70;;;16.20;99.90;;;;;;5151780;28;20035;-67
2023/05/02 10:47:29;;;;;;;4.45;3.30;;;16.10;99.90;;;;;;5116107;28;20042;-70
2023/05/02 10:50:02;;;;;;;3.58;2.97;;;16.10;99.90;;;;;;5115892;28;20042;-69
2023/05/02 10:52:37;;;;;;;418.65;197.52;;;16.00;99.90;;;;;;5145465;28;20466;-71
2023/05/02 10:55:23;;;;;;;722.95;313.02;;;15.90;99.90;;;;;;5151304;28;20230;-70
2023/05/02 10:57:58;;;;;;;15.32;13.07;;;15.50;99.90;;;;;;5125255;28;20056;-69
2023/05/02 11:00:48;;;;;;;31.35;24.02;;;15.20;99.90;;;;;;5129975;28;20049;-69
2023/05/02 11:03:59;;;;;;;156.65;122.15;;;15.10;99.90;;;;;;5143764;28;20346;-73
2023/05/02 11:06:55;;;;;;;33.75;28.60;;;14.90;99.90;;;;;;5109089;28;20034;-70
2023/05/02 11:09:29;;;;;;;6.55;5.90;;;14.80;99.90;;;;;;5071701;29;20055;-69
2023/05/02 11:12:03;;;;;;;17.25;15.52;;;14.90;99.90;;;;;;5057628;29;20035;-72
2023/05/02 11:14:37;;;;;;;19.13;17.15;;;14.90;99.90;;;;;;5078175;29;20046;-70
2023/05/02 11:17:09;;;;;;;5.00;4.50;;;15.10;99.90;;;;;;5054220;29;20052;-70
2023/05/02 11:19:46;;;;;;;4.20;3.03;;;15.40;99.90;;;;;;5041453;29;20032;-70
2023/05/02 11:22:22;;;;;;;9.07;8.23;;;15.60;99.90;;;;;;5059671;29;20054;-70
2023/05/02 11:24:56;;;;;;;9.25;8.35;;;15.50;99.90;;;;;;5058267;29;20386;-66
2023/05/02 11:27:31;;;;;;;4.00;3.60;;;15.70;99.90;;;;;;5076606;29;20072;-71
2023/05/02 11:30:08;;;;;;;;;;;16.20;99.90;;;;;;5075187;29;20807;-70
2023/05/02 11:32:47;;;;;;;6.35;5.43;;;16.30;99.90;;;;;;5054572;29;19919;-68
2023/05/02 11:35:26;;;;;;;3.92;3.35;;;16.30;99.90;;;;;;5072392;29;20048;-70
2023/05/02 11:38:03;;;;;;;5.25;4.75;;;16.10;99.90;;;;;;5088954;29;20035;-69
2023/05/02 11:40:35;;;;;;;4.65;4.13;;;16.10;99.90;;;;;;5069902;29;20059;-70
2023/05/02 11:43:21;;;;;;;5.45;4.68;;;16.20;99.90;;;;;;5081145;29;20056;-70
2023/05/02 11:45:58;;;;;;;8.32;4.70;;;16.60;99.90;;;;;;5056446;28;20601;-71
2023/05/02 11:48:30;;;;;;;3.92;3.45;;;16.90;99.90;;;;;;5153283;28;20030;-68
2023/05/02 11:51:03;;;;;;;7.30;5.03;;;17.20;99.90;;;;;;5118365;28;20247;-69
2023/05/02 11:53:40;;;;;;;4.57;4.10;;;17.00;99.90;;;;;;5121453;28;20524;-69
2023/05/02 11:56:15;;;;;;;8.82;6.82;;;16.90;99.90;;;;;;5156135;28;20031;-70
2023/05/02 11:59:01;;;;;;;6.53;5.35;;;16.80;99.90;;;;;;5121427;28;20033;-71
2023/05/02 12:01:35;;;;;;;9.73;7.78;;;16.80;99.90;;;;;;5117784;28;20046;-66
2023/05/02 12:04:09;;;;;;;8.05;5.90;;;17.40;99.90;;;;;;5153346;28;20030;-69
2023/05/02 12:06:57;;;;;;;12.57;10.52;;;17.60;99.90;;;;;;5142651;28;20046;-70
2023/05/02 12:09:29;;;;;;;3.55;3.25;;;17.60;99.90;;;;;;5149097;28;20052;-68
2023/05/02 12:12:04;;;;;;;5.00;4.03;;;17.60;99.90;;;;;;5153195;28;20029;-70
2023/05/02 12:14:36;;;;;;;3.90;3.60;;;17.70;99.90;;;;;;5136085;28;20379;-69
2023/05/02 12:17:08;;;;;;;3.55;2.90;;;17.40;99.90;;;;;;5150042;28;20040;-69
2023/05/02 12:19:40;;;;;;;4.63;4.13;;;17.50;99.90;;;;;;5156075;28;20036;-72
2023/05/02 12:22:13;;;;;;;4.20;3.80;;;17.60;99.90;;;;;;5117172;28;20034;-73
2023/05/02 12:24:45;;;;;;;4.03;3.70;;;17.40;99.90;;;;;;5152541;28;20046;-70
2023/05/02 12:27:21;;;;;;;4.05;3.65;;;17.40;99.90;;;;;;5122528;28;20056;-72
2023/05/02 12:29:53;;;;;;;5.72;3.72;;;17.40;99.90;;;;;;5138228;28;20129;-70
2023/05/02 12:32:32;;;;;;;6.50;5.22;;;17.40;99.90;;;;;;5161254;28;20030;-72
2023/05/02 12:35:04;;;;;;;4.90;4.07;;;17.60;99.90;;;;;;5152462;28;20046;-71
2023/05/02 12:37:36;;;;;;;4.40;3.53;;;17.60;99.90;;;;;;5123571;28;20050;-68
2023/05/02 12:40:19;;;;;;;5.85;3.70;;;17.70;99.90;;;;;;5160402;28;20030;-71
2023/05/02 12:43:05;;;;;;;3.55;3.25;;;17.70;99.90;;;;;;5153268;28;20037;-72
2023/05/02 12:45:42;;;;;;;3.10;2.80;;;17.70;99.90;;;;;;5133976;28;20054;-70
2023/05/02 12:48:26;;;;;;;3.70;3.30;;;17.40;99.90;;;;;;5134729;28;20042;-69
2023/05/02 12:51:00;;;;;;;4.30;3.90;;;17.50;99.90;;;;;;5151813;28;20048;-68
2023/05/02 12:53:46;;;;;;;7.57;6.45;;;17.30;99.90;;;;;;5120257;28;20056;-68
2023/05/02 12:56:20;;;;;;;6.32;5.70;;;17.10;99.90;;;;;;5136688;28;20068;-71
2023/05/02 12:58:58;;;;;;;5.75;5.20;;;17.20;99.90;;;;;;5133655;28;20371;-68
2023/05/02 13:01:31;;;;;;;3.90;3.50;;;17.60;99.90;;;;;;5132245;28;20059;-70
2023/05/02 13:04:04;;;;;;;4.40;3.30;;;17.80;99.90;;;;;;5138360;28;20041;-70
2023/05/02 13:06:36;;;;;;;8.60;7.63;;;17.60;99.90;;;;;;5125708;28;20052;-69
2023/05/02 13:09:08;;;;;;;4.68;4.15;;;17.40;99.90;;;;;;5143714;28;20044;-69
2023/05/02 13:11:39;;;;;;;4.60;4.05;;;17.30;99.90;;;;;;5138177;28;20044;-71
2023/05/02 13:14:10;;;;;;;4.75;4.00;;;16.70;99.90;;;;;;5172632;28;20025;-71
2023/05/02 13:16:42;;;;;;;7.28;4.85;;;16.70;99.90;;;;;;5154680;28;20068;-69
2023/05/02 13:19:18;;;;;;;4.85;3.55;;;16.90;99.90;;;;;;5153409;28;20041;-71
2023/05/02 13:21:50;;;;;;;6.32;4.15;;;16.90;99.90;;;;;;5125928;28;20041;-68
2023/05/02 13:24:24;;;;;;;4.47;4.00;;;16.70;99.90;;;;;;5124515;28;20038;-70
2023/05/02 13:26:55;;;;;;;;;;;16.60;99.90;;;;;;5159000;28;20044;-67
2023/05/02 13:29:27;;;;;;;3.85;3.47;;;17.10;99.90;;;;;;5141090;28;19909;-68
2023/05/02 13:32:03;;;;;;;5.85;4.50;;;17.20;99.90;;;;;;5159938;28;20215;-71
2023/05/02 13:34:35;;;;;;;7.13;5.65;;;17.10;99.90;;;;;;5163561;28;20041;-71